sensor_id;sensor_type;location;lat;lon;timestamp;pressure;altitude;pressure_sealevel;temperature;humidity
19748;BME280;10032;51.386;12.516;2023-04-06T00:01:24;100683.00;;;1.95;100.00
19748;BME280;10032;51.386;12.516;2023-04-06T00:03:50;100679.88;;;1.91;100.00
19748;BME280;10032;51.386;12.516;2023-04-06T00:06:16;100680.06;;;1.90;100.00
19748;BME280;10032;51.386;12.516;2023-04-06T00:08:41;100682.94;;;1.88;100.00
19748;BME280;10032;51.386;12.516;2023-04-06T00:11:07;100682.09;;;1.88;100.00
19748;BME280;10032;51.386;12.516;2023-04-06T00:13:32;100675.44;;;1.84;100.00
19748;BME280;10032;51.386;12.516;2023-04-06T00:15:58;100669.94;;;1.85;100.00
19748;BME280;10032;51.386;12.516;2023-04-06T00:18:23;100672.13;;;1.82;100.00
19748;BME280;10032;51.386;12.516;2023-04-06T00:20:49;100675.94;;;1.87;100.00
19748;BME280;10032;51.386;12.516;2023-04-06T00:23:16;100673.91;;;1.89;100.00
19748;BME280;10032;51.386;12.516;2023-04-06T00:25:41;100674.72;;;1.90;100.00
19748;BME280;10032;51.386;12.516;2023-04-06T00:28:07;100672.03;;;1.90;100.00
19748;BME280;10032;51.386;12.516;2023-04-06T00:30:32;100677.22;;;1.91;100.00
19748;BME280;10032;51.386;12.516;2023-04-06T00:32:58;100674.81;;;1.96;100.00
19748;BME280;10032;51.386;12.516;2023-04-06T00:35:23;100667.84;;;1.95;100.00
19748;BME280;10032;51.386;12.516;2023-04-06T00:37:49;100674.47;;;1.99;100.00
19748;BME280;10032;51.386;12.516;2023-04-06T00:40:15;100666.63;;;1.98;100.00
19748;BME280;10032;51.386;12.516;2023-04-06T00:42:41;100661.94;;;2.00;100.00
19748;BME280;10032;51.386;12.516;2023-04-06T00:45:07;100665.09;;;2.03;100.00
19748;BME280;10032;51.386;12.516;2023-04-06T00:47:33;100665.72;;;2.05;100.00
19748;BME280;10032;51.386;12.516;2023-04-06T00:49:59;100661.22;;;2.06;100.00
19748;BME280;10032;51.386;12.516;2023-04-06T00:52:24;100658.56;;;2.06;100.00
19748;BME280;10032;51.386;12.516;2023-04-06T00:54:50;100655.03;;;2.05;100.00
19748;BME280;10032;51.386;12.516;2023-04-06T00:57:16;100662.31;;;2.11;100.00
19748;BME280;10032;51.386;12.516;2023-04-06T00:59:41;100663.63;;;2.15;100.00
19748;BME280;10032;51.386;12.516;2023-04-06T01:02:07;100665.75;;;2.20;100.00
19748;BME280;10032;51.386;12.516;2023-04-06T01:04:33;100661.13;;;2.28;100.00
19748;BME280;10032;51.386;12.516;2023-04-06T01:06:59;100663.34;;;2.25;100.00
19748;BME280;10032;51.386;12.516;2023-04-06T01:09:24;100647.22;;;2.18;100.00
19748;BME280;10032;51.386;12.516;2023-04-06T01:11:52;100653.13;;;2.14;100.00
19748;BME280;10032;51.386;12.516;2023-04-06T01:14:17;100645.44;;;2.11;100.00
19748;BME280;10032;51.386;12.516;2023-04-06T01:16:43;100645.94;;;2.14;100.00
19748;BME280;10032;51.386;12.516;2023-04-06T01:19:09;100644.81;;;2.23;100.00
19748;BME280;10032;51.386;12.516;2023-04-06T01:21:36;100657.09;;;2.32;100.00
19748;BME280;10032;51.386;12.516;2023-04-06T01:24:02;100641.31;;;2.37;100.00
19748;BME280;10032;51.386;12.516;2023-04-06T01:26:27;100638.56;;;2.45;100.00
19748;BME280;10032;51.386;12.516;2023-04-06T01:28:55;100637.81;;;2.51;100.00
19748;BME280;10032;51.386;12.516;2023-04-06T01:31:21;100641.41;;;2.58;100.00
19748;BME280;10032;51.386;12.516;2023-04-06T01:33:46;100642.31;;;2.65;100.00
19748;BME280;10032;51.386;12.516;2023-04-06T01:36:12;100631.88;;;2.70;100.00
19748;BME280;10032;51.386;12.516;2023-04-06T01:38:37;100630.69;;;2.73;100.00
19748;BME280;10032;51.386;12.516;2023-04-06T01:41:03;100633.78;;;2.76;100.00
19748;BME280;10032;51.386;12.516;2023-04-06T01:43:28;100628.09;;;2.79;100.00
19748;BME280;10032;51.386;12.516;2023-04-06T01:45:54;100626.50;;;2.85;100.00
19748;BME280;10032;51.386;12.516;2023-04-06T01:48:20;100626.75;;;2.90;100.00
19748;BME280;10032;51.386;12.516;2023-04-06T01:50:46;100625.19;;;2.95;100.00
19748;BME280;10032;51.386;12.516;2023-04-06T01:53:11;100621.94;;;3.00;100.00
19748;BME280;10032;51.386;12.516;2023-04-06T01:55:37;100616.56;;;3.00;100.00
19748;BME280;10032;51.386;12.516;2023-04-06T01:58:02;100619.91;;;3.02;100.00
19748;BME280;10032;51.386;12.516;2023-04-06T02:00:28;100617.50;;;3.07;100.00
19748;BME280;10032;51.386;12.516;2023-04-06T02:02:53;100614.59;;;3.08;100.00
19748;BME280;10032;51.386;12.516;2023-04-06T02:05:19;100614.25;;;3.11;100.00
19748;BME280;10032;51.386;12.516;2023-04-06T02:07:45;100615.34;;;3.17;100.00
19748;BME280;10032;51.386;12.516;2023-04-06T02:10:12;100616.16;;;3.17;100.00
19748;BME280;10032;51.386;12.516;2023-04-06T02:12:38;100624.19;;;3.17;100.00
19748;BME280;10032;51.386;12.516;2023-04-06T02:15:04;100616.41;;;3.22;100.00
19748;BME280;10032;51.386;12.516;2023-04-06T02:17:30;100608.56;;;3.21;100.00
19748;BME280;10032;51.386;12.516;2023-04-06T02:19:55;100615.78;;;3.20;100.00
19748;BME280;10032;51.386;12.516;2023-04-06T02:22:21;100615.19;;;3.25;100.00
19748;BME280;10032;51.386;12.516;2023-04-06T02:24:46;100613.38;;;3.25;100.00
19748;BME280;10032;51.386;12.516;2023-04-06T02:27:13;100615.03;;;3.26;100.00
19748;BME280;10032;51.386;12.516;2023-04-06T02:29:38;100604.69;;;3.23;100.00
19748;BME280;10032;51.386;12.516;2023-04-06T02:32:04;100603.03;;;3.22;100.00
19748;BME280;10032;51.386;12.516;2023-04-06T02:34:30;100614.34;;;3.24;100.00
19748;BME280;10032;51.386;12.516;2023-04-06T02:36:55;100608.63;;;3.27;100.00
19748;BME280;10032;51.386;12.516;2023-04-06T02:39:21;100608.28;;;3.30;100.00
19748;BME280;10032;51.386;12.516;2023-04-06T02:41:46;100605.59;;;3.30;100.00
19748;BME280;10032;51.386;12.516;2023-04-06T02:44:12;100608.06;;;3.32;100.00
19748;BME280;10032;51.386;12.516;2023-04-06T02:46:37;100602.91;;;3.30;100.00
19748;BME280;10032;51.386;12.516;2023-04-06T02:49:03;100617.78;;;3.33;100.00
19748;BME280;10032;51.386;12.516;2023-04-06T02:51:28;100603.53;;;3.32;100.00
19748;BME280;10032;51.386;12.516;2023-04-06T02:53:53;100611.94;;;3.29;100.00
19748;BME280;10032;51.386;12.516;2023-04-06T02:56:19;100610.28;;;3.28;100.00
19748;BME280;10032;51.386;12.516;2023-04-06T02:58:46;100609.47;;;3.28;100.00
19748;BME280;10032;51.386;12.516;2023-04-06T03:01:12;100610.28;;;3.28;100.00
19748;BME280;10032;51.386;12.516;2023-04-06T03:03:37;100607.06;;;3.33;100.00
19748;BME280;10032;51.386;12.516;2023-04-06T03:06:03;100610.00;;;3.38;100.00
19748;BME280;10032;51.386;12.516;2023-04-06T03:08:29;100614.13;;;3.40;100.00
19748;BME280;10032;51.386;12.516;2023-04-06T03:10:54;100609.59;;;3.41;100.00
19748;BME280;10032;51.386;12.516;2023-04-06T03:13:20;100605.44;;;3.38;100.00
19748;BME280;10032;51.386;12.516;2023-04-06T03:15:46;100605.88;;;3.42;100.00
19748;BME280;10032;51.386;12.516;2023-04-06T03:18:11;100611.06;;;3.43;100.00
19748;BME280;10032;51.386;12.516;2023-04-06T03:20:37;100607.16;;;3.46;100.00
19748;BME280;10032;51.386;12.516;2023-04-06T03:23:02;100608.19;;;3.45;100.00
19748;BME280;10032;51.386;12.516;2023-04-06T03:25:28;100603.19;;;3.42;100.00
19748;BME280;10032;51.386;12.516;2023-04-06T03:27:55;100610.03;;;3.44;100.00
19748;BME280;10032;51.386;12.516;2023-04-06T03:30:20;100606.31;;;3.45;100.00
19748;BME280;10032;51.386;12.516;2023-04-06T03:32:46;100612.34;;;3.47;100.00
19748;BME280;10032;51.386;12.516;2023-04-06T03:35:11;100604.13;;;3.49;100.00
19748;BME280;10032;51.386;12.516;2023-04-06T03:37:37;100606.97;;;3.47;100.00
19748;BME280;10032;51.386;12.516;2023-04-06T03:40:04;100605.94;;;3.48;100.00
19748;BME280;10032;51.386;12.516;2023-04-06T03:42:30;100611.50;;;3.47;100.00
19748;BME280;10032;51.386;12.516;2023-04-06T03:44:56;100613.09;;;3.41;100.00
19748;BME280;10032;51.386;12.516;2023-04-06T03:47:21;100615.34;;;3.38;100.00
19748;BME280;10032;51.386;12.516;2023-04-06T03:49:47;100608.97;;;3.39;100.00
19748;BME280;10032;51.386;12.516;2023-04-06T03:52:12;100611.81;;;3.37;100.00
19748;BME280;10032;51.386;12.516;2023-04-06T03:54:38;100621.50;;;3.38;100.00
19748;BME280;10032;51.386;12.516;2023-04-06T03:57:04;100618.03;;;3.38;100.00
19748;BME280;10032;51.386;12.516;2023-04-06T03:59:29;100623.56;;;3.36;100.00
19748;BME280;10032;51.386;12.516;2023-04-06T04:01:55;100623.56;;;3.36;100.00
19748;BME280;10032;51.386;12.516;2023-04-06T04:04:20;100622.47;;;3.31;100.00
19748;BME280;10032;51.386;12.516;2023-04-06T04:06:46;100622.47;;;3.31;100.00
19748;BME280;10032;51.386;12.516;2023-04-06T04:09:12;100624.34;;;3.30;100.00
19748;BME280;10032;51.386;12.516;2023-04-06T04:11:37;100630.50;;;3.31;100.00
19748;BME280;10032;51.386;12.516;2023-04-06T04:14:03;100626.34;;;3.28;100.00
19748;BME280;10032;51.386;12.516;2023-04-06T04:16:28;100627.75;;;3.24;100.00
19748;BME280;10032;51.386;12.516;2023-04-06T04:18:54;100630.41;;;3.24;100.00
19748;BME280;10032;51.386;12.516;2023-04-06T04:21:20;100641.13;;;3.24;100.00
19748;BME280;10032;51.386;12.516;2023-04-06T04:23:46;100628.31;;;3.20;100.00
19748;BME280;10032;51.386;12.516;2023-04-06T04:26:11;100633.88;;;3.18;100.00
19748;BME280;10032;51.386;12.516;2023-04-06T04:28:37;100628.91;;;3.15;100.00
19748;BME280;10032;51.386;12.516;2023-04-06T04:31:02;100630.94;;;3.13;100.00
19748;BME280;10032;51.386;12.516;2023-04-06T04:33:28;100634.00;;;3.10;100.00
19748;BME280;10032;51.386;12.516;2023-04-06T04:35:53;100628.22;;;3.07;100.00
19748;BME280;10032;51.386;12.516;2023-04-06T04:38:18;100638.44;;;3.03;100.00
19748;BME280;10032;51.386;12.516;2023-04-06T04:40:44;100633.47;;;3.00;100.00
19748;BME280;10032;51.386;12.516;2023-04-06T04:43:10;100636.72;;;2.96;100.00
19748;BME280;10032;51.386;12.516;2023-04-06T04:45:36;100630.91;;;2.92;100.00
19748;BME280;10032;51.386;12.516;2023-04-06T04:48:01;100638.66;;;2.87;100.00
19748;BME280;10032;51.386;12.516;2023-04-06T04:50:27;100643.56;;;2.84;100.00
19748;BME280;10032;51.386;12.516;2023-04-06T04:52:52;100642.53;;;2.85;100.00
19748;BME280;10032;51.386;12.516;2023-04-06T04:55:17;100642.53;;;2.85;100.00
19748;BME280;10032;51.386;12.516;2023-04-06T04:57:43;100645.22;;;2.85;100.00
19748;BME280;10032;51.386;12.516;2023-04-06T05:00:09;100646.44;;;2.82;100.00
19748;BME280;10032;51.386;12.516;2023-04-06T05:02:35;100648.47;;;2.80;100.00
19748;BME280;10032;51.386;12.516;2023-04-06T05:05:00;100645.97;;;2.79;100.00
19748;BME280;10032;51.386;12.516;2023-04-06T05:07:26;100646.63;;;2.81;100.00
19748;BME280;10032;51.386;12.516;2023-04-06T05:09:51;100647.44;;;2.81;100.00
19748;BME280;10032;51.386;12.516;2023-04-06T05:12:18;100647.72;;;2.86;100.00
19748;BME280;10032;51.386;12.516;2023-04-06T05:14:44;100648.16;;;2.90;100.00
19748;BME280;10032;51.386;12.516;2023-04-06T05:17:09;100648.63;;;2.93;100.00
19748;BME280;10032;51.386;12.516;2023-04-06T05:19:35;100646.59;;;2.95;100.00
19748;BME280;10032;51.386;12.516;2023-04-06T05:22:00;100649.91;;;2.97;100.00
19748;BME280;10032;51.386;12.516;2023-04-06T05:24:26;100648.50;;;3.01;100.00
19748;BME280;10032;51.386;12.516;2023-04-06T05:26:51;100644.19;;;3.00;100.00
19748;BME280;10032;51.386;12.516;2023-04-06T05:29:18;100651.63;;;3.05;100.00
19748;BME280;10032;51.386;12.516;2023-04-06T05:31:44;100649.47;;;3.15;100.00
19748;BME280;10032;51.386;12.516;2023-04-06T05:34:09;100649.38;;;3.23;100.00
19748;BME280;10032;51.386;12.516;2023-04-06T05:36:35;100642.22;;;3.30;100.00
19748;BME280;10032;51.386;12.516;2023-04-06T05:39:01;100649.94;;;3.39;100.00
19748;BME280;10032;51.386;12.516;2023-04-06T05:41:26;100655.81;;;3.49;100.00
19748;BME280;10032;51.386;12.516;2023-04-06T05:43:52;100657.72;;;3.55;100.00
19748;BME280;10032;51.386;12.516;2023-04-06T05:46:18;100657.97;;;3.60;100.00
19748;BME280;10032;51.386;12.516;2023-04-06T05:48:43;100655.53;;;3.65;100.00
19748;BME280;10032;51.386;12.516;2023-04-06T05:51:10;100651.09;;;3.72;100.00
19748;BME280;10032;51.386;12.516;2023-04-06T05:53:35;100649.28;;;3.79;100.00
19748;BME280;10032;51.386;12.516;2023-04-06T05:56:02;100662.16;;;3.90;100.00
19748;BME280;10032;51.386;12.516;2023-04-06T05:58:28;100655.22;;;4.02;100.00
19748;BME280;10032;51.386;12.516;2023-04-06T06:01:00;100650.94;;;4.08;100.00
19748;BME280;10032;51.386;12.516;2023-04-06T06:03:26;100647.84;;;4.11;100.00
19748;BME280;10032;51.386;12.516;2023-04-06T06:05:51;100653.53;;;4.22;100.00
19748;BME280;10032;51.386;12.516;2023-04-06T06:08:17;100650.28;;;4.33;100.00
19748;BME280;10032;51.386;12.516;2023-04-06T06:10:42;100654.06;;;4.45;100.00
19748;BME280;10032;51.386;12.516;2023-04-06T06:13:08;100653.34;;;4.64;100.00
19748;BME280;10032;51.386;12.516;2023-04-06T06:15:34;100652.22;;;4.86;100.00
19748;BME280;10032;51.386;12.516;2023-04-06T06:17:59;100650.38;;;4.93;100.00
19748;BME280;10032;51.386;12.516;2023-04-06T06:20:25;100656.19;;;5.03;100.00
19748;BME280;10032;51.386;12.516;2023-04-06T06:22:51;100648.59;;;5.13;100.00
19748;BME280;10032;51.386;12.516;2023-04-06T06:25:17;100648.41;;;5.21;100.00
19748;BME280;10032;51.386;12.516;2023-04-06T06:27:43;100657.94;;;5.30;100.00
19748;BME280;10032;51.386;12.516;2023-04-06T06:30:08;100656.09;;;5.37;100.00
19748;BME280;10032;51.386;12.516;2023-04-06T06:32:34;100654.03;;;5.46;100.00
19748;BME280;10032;51.386;12.516;2023-04-06T06:35:00;100656.75;;;5.52;100.00
19748;BME280;10032;51.386;12.516;2023-04-06T06:37:25;100653.44;;;5.70;100.00
19748;BME280;10032;51.386;12.516;2023-04-06T06:39:51;100657.00;;;5.96;100.00
19748;BME280;10032;51.386;12.516;2023-04-06T06:42:16;100659.03;;;6.33;100.00
19748;BME280;10032;51.386;12.516;2023-04-06T06:44:42;100657.91;;;6.67;100.00
19748;BME280;10032;51.386;12.516;2023-04-06T06:47:07;100652.28;;;6.75;100.00
19748;BME280;10032;51.386;12.516;2023-04-06T06:49:33;100653.50;;;6.85;100.00
19748;BME280;10032;51.386;12.516;2023-04-06T06:51:58;100661.38;;;6.80;100.00
19748;BME280;10032;51.386;12.516;2023-04-06T06:54:24;100656.03;;;6.74;100.00
19748;BME280;10032;51.386;12.516;2023-04-06T06:56:49;100659.16;;;6.71;100.00
19748;BME280;10032;51.386;12.516;2023-04-06T06:59:15;100665.31;;;6.84;100.00
19748;BME280;10032;51.386;12.516;2023-04-06T07:01:41;100665.09;;;6.86;100.00
19748;BME280;10032;51.386;12.516;2023-04-06T07:04:07;100661.97;;;6.95;100.00
19748;BME280;10032;51.386;12.516;2023-04-06T07:06:35;100665.41;;;7.15;100.00
19748;BME280;10032;51.386;12.516;2023-04-06T07:09:01;100668.66;;;7.24;100.00
19748;BME280;10032;51.386;12.516;2023-04-06T07:11:28;100673.22;;;7.23;100.00
19748;BME280;10032;51.386;12.516;2023-04-06T07:13:54;100664.91;;;7.31;100.00
19748;BME280;10032;51.386;12.516;2023-04-06T07:16:20;100667.09;;;7.47;100.00
19748;BME280;10032;51.386;12.516;2023-04-06T07:18:46;100663.94;;;7.50;100.00
19748;BME280;10032;51.386;12.516;2023-04-06T07:21:11;100656.78;;;7.62;100.00
19748;BME280;10032;51.386;12.516;2023-04-06T07:23:37;100663.94;;;7.81;100.00
19748;BME280;10032;51.386;12.516;2023-04-06T07:26:03;100664.06;;;7.93;100.00
19748;BME280;10032;51.386;12.516;2023-04-06T07:28:28;100658.28;;;7.89;100.00
19748;BME280;10032;51.386;12.516;2023-04-06T07:30:54;100655.63;;;8.07;100.00
19748;BME280;10032;51.386;12.516;2023-04-06T07:33:20;100654.66;;;8.26;100.00
19748;BME280;10032;51.386;12.516;2023-04-06T07:35:45;100658.63;;;8.24;100.00
19748;BME280;10032;51.386;12.516;2023-04-06T07:38:11;100656.94;;;8.47;100.00
19748;BME280;10032;51.386;12.516;2023-04-06T07:40:37;100658.44;;;8.61;100.00
19748;BME280;10032;51.386;12.516;2023-04-06T07:43:02;100657.00;;;8.59;100.00
19748;BME280;10032;51.386;12.516;2023-04-06T07:45:28;100663.59;;;8.81;100.00
19748;BME280;10032;51.386;12.516;2023-04-06T07:47:53;100661.72;;;8.99;98.92
19748;BME280;10032;51.386;12.516;2023-04-06T07:50:19;100662.00;;;9.09;99.65
19748;BME280;10032;51.386;12.516;2023-04-06T07:52:45;100653.88;;;9.27;99.55
19748;BME280;10032;51.386;12.516;2023-04-06T07:55:11;100659.75;;;9.24;98.58
19748;BME280;10032;51.386;12.516;2023-04-06T07:57:36;100656.31;;;9.47;97.99
19748;BME280;10032;51.386;12.516;2023-04-06T08:00:02;100646.66;;;9.39;90.73
19748;BME280;10032;51.386;12.516;2023-04-06T08:02:29;100655.31;;;9.59;94.28
19748;BME280;10032;51.386;12.516;2023-04-06T08:04:55;100648.75;;;9.67;92.69
19748;BME280;10032;51.386;12.516;2023-04-06T08:07:20;100638.84;;;9.72;91.09
19748;BME280;10032;51.386;12.516;2023-04-06T08:09:45;100650.19;;;9.92;91.39
19748;BME280;10032;51.386;12.516;2023-04-06T08:12:11;100655.03;;;10.02;88.24
19748;BME280;10032;51.386;12.516;2023-04-06T08:14:36;100651.50;;;10.01;84.73
19748;BME280;10032;51.386;12.516;2023-04-06T08:17:02;100656.91;;;10.01;86.30
19748;BME280;10032;51.386;12.516;2023-04-06T08:19:27;100660.94;;;10.10;85.94
19748;BME280;10032;51.386;12.516;2023-04-06T08:21:53;100654.13;;;10.19;84.07
19748;BME280;10032;51.386;12.516;2023-04-06T08:24:18;100661.09;;;10.27;84.31
19748;BME280;10032;51.386;12.516;2023-04-06T08:26:44;100653.44;;;10.47;84.17
19748;BME280;10032;51.386;12.516;2023-04-06T08:29:09;100647.66;;;10.66;83.85
19748;BME280;10032;51.386;12.516;2023-04-06T08:31:35;100652.91;;;10.84;82.78
19748;BME280;10032;51.386;12.516;2023-04-06T08:34:03;100648.78;;;10.82;80.22
19748;BME280;10032;51.386;12.516;2023-04-06T08:36:28;100648.78;;;10.82;81.55
19748;BME280;10032;51.386;12.516;2023-04-06T08:38:54;100650.63;;;11.04;81.49
19748;BME280;10032;51.386;12.516;2023-04-06T08:41:20;100649.00;;;11.31;82.51
19748;BME280;10032;51.386;12.516;2023-04-06T08:43:54;100643.75;;;11.41;80.05
19748;BME280;10032;51.386;12.516;2023-04-06T08:46:22;100647.41;;;11.47;77.43
19748;BME280;10032;51.386;12.516;2023-04-06T08:48:48;100647.97;;;11.60;78.04
19748;BME280;10032;51.386;12.516;2023-04-06T08:51:15;100645.53;;;11.75;78.16
19748;BME280;10032;51.386;12.516;2023-04-06T08:53:40;100645.19;;;11.88;77.76
19748;BME280;10032;51.386;12.516;2023-04-06T08:56:06;100645.28;;;11.93;75.80
19748;BME280;10032;51.386;12.516;2023-04-06T08:58:35;100651.13;;;12.18;78.18
19748;BME280;10032;51.386;12.516;2023-04-06T09:01:06;100647.34;;;12.36;75.32
19748;BME280;10032;51.386;12.516;2023-04-06T09:03:37;100640.22;;;12.35;73.87
19748;BME280;10032;51.386;12.516;2023-04-06T09:06:03;100644.84;;;12.34;74.19
19748;BME280;10032;51.386;12.516;2023-04-06T09:08:30;100643.69;;;12.47;74.33
19748;BME280;10032;51.386;12.516;2023-04-06T09:10:55;100647.09;;;12.75;73.24
19748;BME280;10032;51.386;12.516;2023-04-06T09:13:21;100636.97;;;12.92;72.42
19748;BME280;10032;51.386;12.516;2023-04-06T09:15:46;100642.56;;;13.02;69.01
19748;BME280;10032;51.386;12.516;2023-04-06T09:18:12;100634.41;;;13.02;67.13
19748;BME280;10032;51.386;12.516;2023-04-06T09:20:37;100633.59;;;13.02;65.38
19748;BME280;10032;51.386;12.516;2023-04-06T09:23:03;100628.81;;;13.14;66.92
19748;BME280;10032;51.386;12.516;2023-04-06T09:25:28;100631.38;;;13.47;66.95
19748;BME280;10032;51.386;12.516;2023-04-06T09:28:04;100630.97;;;13.60;66.79
19748;BME280;10032;51.386;12.516;2023-04-06T09:30:32;100625.75;;;13.85;65.81
19748;BME280;10032;51.386;12.516;2023-04-06T09:32:57;100625.31;;;13.66;60.80
19748;BME280;10032;51.386;12.516;2023-04-06T09:35:24;100622.63;;;13.45;58.00
19748;BME280;10032;51.386;12.516;2023-04-06T09:37:53;100624.84;;;13.74;58.57
19748;BME280;10032;51.386;12.516;2023-04-06T09:40:19;100623.28;;;13.83;58.27
19748;BME280;10032;51.386;12.516;2023-04-06T09:42:46;100624.22;;;13.94;57.51
19748;BME280;10032;51.386;12.516;2023-04-06T09:45:13;100622.28;;;13.94;55.65
19748;BME280;10032;51.386;12.516;2023-04-06T09:47:40;100626.03;;;14.15;54.19
19748;BME280;10032;51.386;12.516;2023-04-06T09:50:09;100622.94;;;14.06;53.32
19748;BME280;10032;51.386;12.516;2023-04-06T09:52:56;100623.22;;;14.41;51.68
19748;BME280;10032;51.386;12.516;2023-04-06T09:58:06;100615.28;;;14.81;52.97
19748;BME280;10032;51.386;12.516;2023-04-06T10:00:42;100614.28;;;15.02;52.41
19748;BME280;10032;51.386;12.516;2023-04-06T10:03:18;100615.44;;;15.21;52.01
19748;BME280;10032;51.386;12.516;2023-04-06T10:05:55;100614.09;;;15.29;48.96
19748;BME280;10032;51.386;12.516;2023-04-06T10:08:24;100618.72;;;15.18;49.91
19748;BME280;10032;51.386;12.516;2023-04-06T10:10:53;100619.00;;;14.60;47.64
19748;BME280;10032;51.386;12.516;2023-04-06T10:13:19;100610.72;;;14.45;46.91
19748;BME280;10032;51.386;12.516;2023-04-06T10:15:45;100612.22;;;14.68;46.58
19748;BME280;10032;51.386;12.516;2023-04-06T10:18:11;100614.25;;;14.97;47.13
19748;BME280;10032;51.386;12.516;2023-04-06T10:20:49;100616.75;;;15.09;46.36
19748;BME280;10032;51.386;12.516;2023-04-06T10:23:30;100618.63;;;14.98;45.49
19748;BME280;10032;51.386;12.516;2023-04-06T10:25:58;100614.34;;;15.22;45.89
19748;BME280;10032;51.386;12.516;2023-04-06T10:28:24;100611.72;;;15.62;46.19
19748;BME280;10032;51.386;12.516;2023-04-06T10:30:57;100607.09;;;15.78;44.79
19748;BME280;10032;51.386;12.516;2023-04-06T10:33:23;100601.94;;;15.86;45.47
19748;BME280;10032;51.386;12.516;2023-04-06T10:35:48;100598.63;;;15.94;43.90
19748;BME280;10032;51.386;12.516;2023-04-06T10:38:14;100603.00;;;15.90;43.47
19748;BME280;10032;51.386;12.516;2023-04-06T10:40:41;100599.16;;;15.96;43.91
19748;BME280;10032;51.386;12.516;2023-04-06T10:43:20;100589.06;;;15.92;43.00
19748;BME280;10032;51.386;12.516;2023-04-06T10:45:54;100589.34;;;16.05;41.88
19748;BME280;10032;51.386;12.516;2023-04-06T10:48:20;100598.09;;;15.82;41.63
19748;BME280;10032;51.386;12.516;2023-04-06T10:50:48;100604.09;;;15.49;41.60
19748;BME280;10032;51.386;12.516;2023-04-06T10:53:27;100592.59;;;15.52;42.36
19748;BME280;10032;51.386;12.516;2023-04-06T10:55:55;100598.50;;;15.19;41.32
19748;BME280;10032;51.386;12.516;2023-04-06T10:58:24;100592.06;;;15.50;41.81
19748;BME280;10032;51.386;12.516;2023-04-06T11:00:51;100590.16;;;15.81;41.65
19748;BME280;10032;51.386;12.516;2023-04-06T11:03:17;100582.81;;;15.91;39.93
19748;BME280;10032;51.386;12.516;2023-04-06T11:05:47;100577.88;;;16.13;40.14
19748;BME280;10032;51.386;12.516;2023-04-06T11:08:27;100574.53;;;16.36;40.28
19748;BME280;10032;51.386;12.516;2023-04-06T11:11:06;100575.66;;;16.20;39.80
19748;BME280;10032;51.386;12.516;2023-04-06T11:13:41;100583.03;;;16.25;39.54
19748;BME280;10032;51.386;12.516;2023-04-06T11:16:07;100578.91;;;16.42;40.41
19748;BME280;10032;51.386;12.516;2023-04-06T11:18:37;100571.19;;;16.69;40.41
19748;BME280;10032;51.386;12.516;2023-04-06T11:21:02;100577.28;;;16.51;38.58
19748;BME280;10032;51.386;12.516;2023-04-06T11:23:28;100575.09;;;16.43;39.00
19748;BME280;10032;51.386;12.516;2023-04-06T11:25:53;100568.53;;;16.49;39.18
19748;BME280;10032;51.386;12.516;2023-04-06T11:28:20;100575.53;;;16.70;39.30
19748;BME280;10032;51.386;12.516;2023-04-06T11:30:46;100570.06;;;16.70;38.27
19748;BME280;10032;51.386;12.516;2023-04-06T11:33:20;100566.47;;;16.90;38.73
19748;BME280;10032;51.386;12.516;2023-04-06T11:35:46;100563.19;;;16.78;37.25
19748;BME280;10032;51.386;12.516;2023-04-06T11:38:12;100565.09;;;16.92;37.95
19748;BME280;10032;51.386;12.516;2023-04-06T11:40:37;100556.16;;;17.20;38.49
19748;BME280;10032;51.386;12.516;2023-04-06T11:43:04;100555.03;;;17.26;37.46
19748;BME280;10032;51.386;12.516;2023-04-06T11:45:39;100550.03;;;17.33;37.29
19748;BME280;10032;51.386;12.516;2023-04-06T11:48:05;100551.19;;;17.22;36.68
19748;BME280;10032;51.386;12.516;2023-04-06T11:50:33;100545.34;;;16.90;36.91
19748;BME280;10032;51.386;12.516;2023-04-06T11:53:01;100557.13;;;16.96;35.58
19748;BME280;10032;51.386;12.516;2023-04-06T11:55:28;100548.19;;;16.70;35.94
19748;BME280;10032;51.386;12.516;2023-04-06T11:57:53;100546.47;;;16.89;35.84
19748;BME280;10032;51.386;12.516;2023-04-06T12:00:20;100540.63;;;17.06;36.33
19748;BME280;10032;51.386;12.516;2023-04-06T12:02:47;100544.50;;;17.05;35.52
19748;BME280;10032;51.386;12.516;2023-04-06T12:05:13;100537.09;;;17.00;35.55
19748;BME280;10032;51.386;12.516;2023-04-06T12:07:38;100534.03;;;17.12;35.66
19748;BME280;10032;51.386;12.516;2023-04-06T12:10:04;100533.59;;;17.33;36.05
19748;BME280;10032;51.386;12.516;2023-04-06T12:12:30;100528.28;;;17.52;36.57
19748;BME280;10032;51.386;12.516;2023-04-06T12:14:56;100524.03;;;17.69;36.11
19748;BME280;10032;51.386;12.516;2023-04-06T12:17:22;100532.22;;;17.74;35.20
19748;BME280;10032;51.386;12.516;2023-04-06T12:19:48;100525.50;;;17.57;35.59
19748;BME280;10032;51.386;12.516;2023-04-06T12:22:14;100524.53;;;17.43;35.35
19748;BME280;10032;51.386;12.516;2023-04-06T12:24:39;100520.59;;;17.59;35.58
19748;BME280;10032;51.386;12.516;2023-04-06T12:27:05;100509.41;;;17.50;34.12
19748;BME280;10032;51.386;12.516;2023-04-06T12:29:30;100515.44;;;17.52;34.94
19748;BME280;10032;51.386;12.516;2023-04-06T12:31:56;100514.97;;;17.35;34.26
19748;BME280;10032;51.386;12.516;2023-04-06T12:34:21;100513.94;;;17.26;34.33
19748;BME280;10032;51.386;12.516;2023-04-06T12:36:47;100514.81;;;17.60;35.53
19748;BME280;10032;51.386;12.516;2023-04-06T12:39:12;100513.00;;;17.46;34.09